createdAt,value
2024-01-08T00:01:32.314Z,1.30
2024-01-08T00:04:02.586Z,2.35
2024-01-08T00:06:31.629Z,0.60
2024-01-08T00:09:00.863Z,1.63
2024-01-08T00:11:30.943Z,1.58
2024-01-08T00:13:59.169Z,1.45
2024-01-08T00:16:27.419Z,1.58
2024-01-08T00:18:55.639Z,0.63
2024-01-08T00:21:23.848Z,4.10
2024-01-08T00:23:52.055Z,1.25
2024-01-08T00:26:20.279Z,1.45
2024-01-08T00:28:49.985Z,1.85
2024-01-08T00:31:18.505Z,2.08
2024-01-08T00:33:46.829Z,0.90
2024-01-08T00:36:15.015Z,1.05
2024-01-08T00:38:43.182Z,1.27
2024-01-08T00:41:11.428Z,0.98
2024-01-08T00:43:39.683Z,2.42
2024-01-08T00:46:09.285Z,3.30
2024-01-08T00:48:37.400Z,1.63
2024-01-08T00:51:05.709Z,1.30
2024-01-08T00:53:33.979Z,1.17
2024-01-08T00:56:02.109Z,0.35
2024-01-08T00:58:31.482Z,0.85
2024-01-08T01:00:59.594Z,2.75
2024-01-08T01:03:29.400Z,1.80
2024-01-08T01:05:58.383Z,1.45
2024-01-08T01:08:26.756Z,0.88
2024-01-08T01:10:54.985Z,1.88
2024-01-08T01:13:23.267Z,3.90
2024-01-08T01:15:51.376Z,2.88
2024-01-08T01:18:19.685Z,0.70
2024-01-08T01:20:50.282Z,3.20
2024-01-08T01:23:18.469Z,0.85
2024-01-08T01:25:46.672Z,2.20
2024-01-08T01:28:15.004Z,1.67
2024-01-08T01:30:43.255Z,0.30
2024-01-08T01:33:11.420Z,0.45
2024-01-08T01:35:40.809Z,0.90
2024-01-08T01:38:10.414Z,1.77
2024-01-08T01:40:38.567Z,1.55
2024-01-08T01:43:23.319Z,2.25
2024-01-08T01:45:54.608Z,1.27
2024-01-08T01:48:24.486Z,1.05
2024-01-08T01:50:53.696Z,1.58
2024-01-08T01:53:23.501Z,1.42
2024-01-08T01:55:52.408Z,1.65
2024-01-08T01:58:20.086Z,0.93
2024-01-08T02:00:50.410Z,3.17
2024-01-08T02:03:19.703Z,1.55
2024-01-08T02:05:48.416Z,1.20
2024-01-08T02:08:17.397Z,1.15
2024-01-08T02:10:47.528Z,2.35
2024-01-08T02:13:15.710Z,3.65
2024-01-08T02:15:43.888Z,1.48
2024-01-08T02:18:12.113Z,2.67
2024-01-08T02:20:40.289Z,1.40
2024-01-08T02:23:09.939Z,4.68
2024-01-08T02:25:38.562Z,1.33
2024-01-08T02:28:07.212Z,1.63
2024-01-08T02:30:35.494Z,2.50
2024-01-08T02:33:03.919Z,1.83
2024-01-08T02:35:32.132Z,1.40
2024-01-08T02:38:00.569Z,6.97
2024-01-08T02:40:30.431Z,4.70
2024-01-08T02:42:58.676Z,1.38
2024-01-08T02:45:26.994Z,2.13
2024-01-08T02:47:55.141Z,2.15
2024-01-08T02:50:23.395Z,2.92
2024-01-08T02:52:51.747Z,3.55
2024-01-08T02:55:20.576Z,1.50
2024-01-08T02:57:50.093Z,2.78
2024-01-08T03:00:19.421Z,1.20
2024-01-08T03:02:47.642Z,3.45
2024-01-08T03:05:16.007Z,1.48
2024-01-08T03:07:44.258Z,4.40
2024-01-08T03:10:12.464Z,1.15
2024-01-08T03:12:40.578Z,1.17
2024-01-08T03:15:11.625Z,3.20
2024-01-08T03:17:39.843Z,1.70
2024-01-08T03:20:10.266Z,1.65
2024-01-08T03:22:40.312Z,1.35
2024-01-08T03:25:09.827Z,1.08
2024-01-08T03:27:39.373Z,2.08
2024-01-08T03:30:10.710Z,1.58
2024-01-08T03:32:39.049Z,2.70
2024-01-08T03:35:07.820Z,2.75
2024-01-08T03:37:36.830Z,1.35
2024-01-08T03:40:07.624Z,3.85
2024-01-08T03:42:36.105Z,3.15
2024-01-08T03:45:04.474Z,1.77
2024-01-08T03:47:34.091Z,1.55
2024-01-08T03:50:02.542Z,0.85
2024-01-08T03:52:30.672Z,1.17
2024-01-08T03:54:59.178Z,1.25
2024-01-08T03:57:37.035Z,1.85
2024-01-08T04:00:07.368Z,1.15
2024-01-08T04:02:37.006Z,0.70
2024-01-08T04:05:06.359Z,1.00
2024-01-08T04:07:34.644Z,0.85
2024-01-08T04:10:02.842Z,1.17
2024-01-08T04:12:31.106Z,2.05
2024-01-08T04:14:59.276Z,1.63
2024-01-08T04:17:29.123Z,1.45
2024-01-08T04:19:59.076Z,5.47
2024-01-08T04:22:27.319Z,2.92
2024-01-08T04:24:55.488Z,2.08
2024-01-08T04:27:23.704Z,1.02
2024-01-08T04:29:51.878Z,1.90
2024-01-08T04:32:20.197Z,1.15
2024-01-08T04:34:48.316Z,2.42
2024-01-08T04:37:17.842Z,3.25
2024-01-08T04:39:45.998Z,1.35
2024-01-08T04:42:14.384Z,1.35
2024-01-08T04:44:42.579Z,3.10
2024-01-08T04:47:11.630Z,1.80
2024-01-08T04:49:39.817Z,1.70
2024-01-08T04:52:08.167Z,2.05
2024-01-08T04:54:38.107Z,1.63
2024-01-08T04:57:06.991Z,1.60
2024-01-08T04:59:35.396Z,4.63
2024-01-08T05:02:03.695Z,2.45
2024-01-08T05:04:31.861Z,1.17
2024-01-08T05:07:00.080Z,2.22
2024-01-08T05:09:28.579Z,1.23
2024-01-08T05:11:58.182Z,1.42
2024-01-08T05:14:26.877Z,1.67
2024-01-08T05:16:55.120Z,1.20
2024-01-08T05:19:23.355Z,1.73
2024-01-08T05:21:51.634Z,0.88
2024-01-08T05:24:19.751Z,2.50
2024-01-08T05:26:47.908Z,2.50
2024-01-08T05:29:17.590Z,2.42
2024-01-08T05:31:45.974Z,1.45
2024-01-08T05:34:14.266Z,2.58
2024-01-08T05:36:43.643Z,0.90
2024-01-08T05:39:11.795Z,1.30
2024-01-08T05:41:46.331Z,1.35
2024-01-08T05:44:14.765Z,3.90
2024-01-08T05:46:46.920Z,0.95
2024-01-08T05:49:15.429Z,1.40
2024-01-08T05:51:43.762Z,2.42
2024-01-08T05:54:11.890Z,0.60
2024-01-08T05:56:40.213Z,1.00
2024-01-08T05:59:09.121Z,1.10
2024-01-08T06:01:37.532Z,2.53
2024-01-08T06:04:09.069Z,1.77
2024-01-08T06:06:37.410Z,2.88
2024-01-08T06:09:05.761Z,1.75
2024-01-08T06:11:34.002Z,1.45
2024-01-08T06:14:04.297Z,1.20
2024-01-08T06:16:36.668Z,1.05
2024-01-08T06:19:06.448Z,0.52
2024-01-08T06:21:34.632Z,0.55
2024-01-08T06:24:02.999Z,3.22
2024-01-08T06:26:32.439Z,0.95
2024-01-08T06:29:01.738Z,1.13
2024-01-08T06:31:30.330Z,1.70
2024-01-08T06:33:58.574Z,2.40
2024-01-08T06:36:28.152Z,1.25
2024-01-08T06:38:56.540Z,1.60
2024-01-08T06:41:24.856Z,0.65
2024-01-08T06:43:53.035Z,0.85
2024-01-08T06:46:21.399Z,0.63
2024-01-08T06:48:50.000Z,0.55
2024-01-08T06:51:18.282Z,0.63
2024-01-08T06:53:48.162Z,2.25
2024-01-08T06:56:16.463Z,1.10
2024-01-08T06:58:44.695Z,0.82
2024-01-08T07:01:12.948Z,1.88
2024-01-08T07:03:41.247Z,1.38
2024-01-08T07:06:09.766Z,0.55
2024-01-08T07:08:38.325Z,2.10
2024-01-08T07:11:08.073Z,2.03
2024-01-08T07:13:36.293Z,2.47
2024-01-08T07:16:05.102Z,0.60
2024-01-08T07:18:33.635Z,0.95
2024-01-08T07:21:01.894Z,1.65
2024-01-08T07:23:30.088Z,2.35
2024-01-08T07:25:58.318Z,0.65
2024-01-08T07:28:27.860Z,0.82
2024-01-08T07:30:56.396Z,2.38
2024-01-08T07:33:25.196Z,0.93
2024-01-08T07:35:53.623Z,5.38
2024-01-08T07:38:23.242Z,1.73
2024-01-08T07:40:51.613Z,1.88
2024-01-08T07:43:19.865Z,2.33
2024-01-08T07:45:49.692Z,1.60
2024-01-08T07:48:18.010Z,1.55
2024-01-08T07:50:46.862Z,1.77
2024-01-08T07:53:15.440Z,1.17
2024-01-08T07:55:43.769Z,1.60
2024-01-08T07:58:14.913Z,0.73
2024-01-08T08:00:43.303Z,0.95
2024-01-08T08:03:13.235Z,1.17
2024-01-08T08:05:41.755Z,3.30
2024-01-08T08:08:10.027Z,2.90
2024-01-08T08:10:38.304Z,2.63
2024-01-08T08:13:06.826Z,2.00
2024-01-08T08:15:34.958Z,3.63
2024-01-08T08:18:04.742Z,1.27
2024-01-08T08:20:34.759Z,1.63
2024-01-08T08:23:03.121Z,1.85
2024-01-08T08:25:31.945Z,1.83
2024-01-08T08:28:00.261Z,1.08
2024-01-08T08:30:28.511Z,2.47
2024-01-08T08:33:00.033Z,0.95
2024-01-08T08:35:29.154Z,3.30
2024-01-08T08:37:59.799Z,1.77
2024-01-08T08:40:28.288Z,3.20
2024-01-08T08:42:56.869Z,1.33
2024-01-08T08:45:25.084Z,1.35
2024-01-08T08:47:53.343Z,1.42
2024-01-08T08:50:21.709Z,1.23
2024-01-08T08:52:49.972Z,1.65
2024-01-08T08:55:19.670Z,1.40
2024-01-08T08:57:48.259Z,1.08
2024-01-08T09:00:20.699Z,1.55
2024-01-08T09:02:51.867Z,0.88
2024-01-08T09:05:28.738Z,4.93
2024-01-08T09:08:05.673Z,4.07
2024-01-08T09:10:35.958Z,2.30
2024-01-08T09:13:04.392Z,7.53
2024-01-08T09:15:32.792Z,4.03
2024-01-08T09:18:02.689Z,2.10
2024-01-08T09:20:31.216Z,6.78
2024-01-08T09:22:59.476Z,2.15
2024-01-08T09:25:27.884Z,5.72
2024-01-08T09:27:57.446Z,3.03
2024-01-08T09:30:25.834Z,0.98
2024-01-08T09:32:54.369Z,2.50
2024-01-08T09:35:22.631Z,2.78
2024-01-08T09:37:50.965Z,2.20
2024-01-08T09:40:19.250Z,6.53
2024-01-08T09:42:49.119Z,5.18
2024-01-08T09:45:24.821Z,3.38
2024-01-08T09:47:54.474Z,1.95
2024-01-08T09:50:24.643Z,4.95
2024-01-08T09:52:55.553Z,5.50
2024-01-08T09:55:24.102Z,1.05
2024-01-08T09:57:52.408Z,3.85
2024-01-08T10:00:22.837Z,2.58
2024-01-08T10:03:00.255Z,1.60
2024-01-08T10:05:30.494Z,1.52
2024-01-08T10:08:02.021Z,0.77
2024-01-08T10:10:31.126Z,2.10
2024-01-08T10:12:59.592Z,4.88
2024-01-08T10:15:30.143Z,3.97
2024-01-08T10:18:03.031Z,1.55
2024-01-08T10:20:32.907Z,5.75
2024-01-08T10:23:10.090Z,1.70
2024-01-08T10:25:40.678Z,1.92
2024-01-08T10:28:11.429Z,1.83
2024-01-08T10:30:43.276Z,5.00
2024-01-08T10:33:11.619Z,3.53
2024-01-08T10:35:42.550Z,2.67
2024-01-08T10:38:10.965Z,1.70
2024-01-08T10:40:39.132Z,2.05
2024-01-08T10:43:08.112Z,1.75
2024-01-08T10:45:36.273Z,2.28
2024-01-08T10:48:14.296Z,3.03
2024-01-08T10:50:48.216Z,2.42
2024-01-08T10:53:28.167Z,2.55
2024-01-08T10:55:58.300Z,3.28
2024-01-08T10:58:36.293Z,1.35
2024-01-08T11:01:05.182Z,3.00
2024-01-08T11:03:37.857Z,1.45
2024-01-08T11:06:09.029Z,3.30
2024-01-08T11:08:37.471Z,2.55
2024-01-08T11:11:09.363Z,0.77
2024-01-08T11:13:37.858Z,2.42
2024-01-08T11:16:09.783Z,3.20
2024-01-08T11:18:40.304Z,3.03
2024-01-08T11:21:09.130Z,1.98
2024-01-08T11:23:42.988Z,3.38
2024-01-08T11:26:20.687Z,2.00
2024-01-08T11:29:05.272Z,2.45
2024-01-08T11:32:20.162Z,1.85
2024-01-08T11:35:02.211Z,2.78
2024-01-08T11:37:36.766Z,2.20
2024-01-08T11:40:15.153Z,3.10
2024-01-08T11:42:44.582Z,2.30
2024-01-08T11:45:13.419Z,1.67
2024-01-08T11:47:42.521Z,2.45
2024-01-08T11:50:12.711Z,2.70
2024-01-08T11:53:14.227Z,1.80
2024-01-08T11:55:42.754Z,1.73
2024-01-08T11:58:11.141Z,3.08
2024-01-08T12:00:39.724Z,3.75
2024-01-08T12:03:10.169Z,3.08
2024-01-08T12:05:40.166Z,3.55
2024-01-08T12:08:17.262Z,2.83
2024-01-08T12:13:19.104Z,3.78
2024-01-08T12:15:50.586Z,2.55
2024-01-08T12:18:20.113Z,3.78
2024-01-08T12:20:49.759Z,5.30
2024-01-08T12:23:18.184Z,2.97
2024-01-08T12:25:51.237Z,4.22
2024-01-08T12:28:19.863Z,3.38
2024-01-08T12:30:48.043Z,3.00
2024-01-08T12:33:17.039Z,3.85
2024-01-08T12:35:45.469Z,4.55
2024-01-08T12:38:15.109Z,3.45
2024-01-08T12:40:46.242Z,3.15
2024-01-08T12:43:14.560Z,3.47
2024-01-08T12:45:48.052Z,3.92
2024-01-08T12:48:17.370Z,4.22
2024-01-08T12:50:47.551Z,3.20
2024-01-08T12:53:17.493Z,2.83
2024-01-08T12:55:45.585Z,1.08
2024-01-08T12:58:13.707Z,1.42
2024-01-08T13:00:41.901Z,3.10
2024-01-08T13:03:10.321Z,14.57
2024-01-08T13:05:39.807Z,5.82
2024-01-08T13:08:08.398Z,3.05
2024-01-08T13:10:38.017Z,6.15
2024-01-08T13:13:06.194Z,4.93
2024-01-08T13:15:36.585Z,2.67
2024-01-08T13:18:05.401Z,3.33
2024-01-08T13:20:33.988Z,2.78
2024-01-08T13:23:02.320Z,4.63
2024-01-08T13:25:30.595Z,2.33
2024-01-08T13:28:00.192Z,3.53
2024-01-08T13:30:30.366Z,2.40
2024-01-08T13:32:58.713Z,3.15
2024-01-08T13:35:26.952Z,5.07
2024-01-08T13:37:55.092Z,3.55
2024-01-08T13:40:24.073Z,2.85
2024-01-08T13:42:55.359Z,5.35
2024-01-08T13:45:27.384Z,5.57
2024-01-08T13:47:56.081Z,5.55
2024-01-08T13:50:24.487Z,2.67
2024-01-08T13:52:52.751Z,2.30
2024-01-08T13:55:21.664Z,2.55
2024-01-08T13:57:49.789Z,3.42
2024-01-08T14:00:19.067Z,7.28
2024-01-08T14:02:48.826Z,3.33
2024-01-08T14:05:17.764Z,2.45
2024-01-08T14:07:46.042Z,3.10
2024-01-08T14:10:14.373Z,3.63
2024-01-08T14:12:42.537Z,4.15
2024-01-08T14:15:13.521Z,3.67
2024-01-08T14:17:42.865Z,4.07
2024-01-08T14:20:17.324Z,4.05
2024-01-08T14:22:47.931Z,5.45
2024-01-08T14:25:17.932Z,2.20
2024-01-08T14:27:47.059Z,2.58
2024-01-08T14:30:16.187Z,3.20
2024-01-08T14:32:46.597Z,3.20
2024-01-08T14:35:16.345Z,4.40
2024-01-08T14:37:44.235Z,2.28
2024-01-08T14:40:15.626Z,2.65
2024-01-08T14:42:43.808Z,3.83
2024-01-08T14:45:12.238Z,3.45
2024-01-08T14:47:40.414Z,3.22
2024-01-08T14:50:10.704Z,4.45
2024-01-08T14:52:41.512Z,3.53
2024-01-08T14:55:10.527Z,14.10
2024-01-08T14:57:38.658Z,5.03
2024-01-08T15:00:10.330Z,2.88
2024-01-08T15:02:40.320Z,2.83
2024-01-08T15:05:09.957Z,6.03
2024-01-08T15:07:38.562Z,3.15
2024-01-08T15:10:10.270Z,5.47
2024-01-08T15:12:38.430Z,4.15
2024-01-08T15:15:10.705Z,2.58
2024-01-08T15:17:39.157Z,5.05
2024-01-08T15:20:09.967Z,2.78
2024-01-08T15:22:38.360Z,3.47
2024-01-08T15:25:08.768Z,4.90
2024-01-08T15:27:37.446Z,4.63
2024-01-08T15:30:10.116Z,2.40
2024-01-08T15:32:38.429Z,1.92
2024-01-08T15:35:07.401Z,4.10
2024-01-08T15:37:35.665Z,4.68
2024-01-08T15:40:04.419Z,5.35
2024-01-08T15:42:34.075Z,3.28
2024-01-08T15:45:02.222Z,2.13
2024-01-08T15:47:30.583Z,3.35
2024-01-08T15:50:13.203Z,3.38
2024-01-08T15:52:41.796Z,3.42
2024-01-08T15:55:10.688Z,6.63
2024-01-08T15:57:40.328Z,4.10
2024-01-08T16:00:10.544Z,4.05
2024-01-08T16:02:39.116Z,8.13
2024-01-08T16:05:08.898Z,7.35
2024-01-08T16:07:37.452Z,5.13
2024-01-08T16:10:07.615Z,3.88
2024-01-08T16:13:15.211Z,3.03
2024-01-08T16:15:44.109Z,3.67
2024-01-08T16:18:14.441Z,4.47
2024-01-08T16:21:13.401Z,2.53
2024-01-08T16:24:13.232Z,5.57
2024-01-08T16:27:18.588Z,6.15
2024-01-08T16:30:19.472Z,4.13
2024-01-08T16:32:47.791Z,7.22
2024-01-08T16:35:16.519Z,7.65
2024-01-08T16:37:45.072Z,2.55
2024-01-08T16:40:13.627Z,4.35
2024-01-08T16:42:42.816Z,6.68
2024-01-08T16:45:13.003Z,3.20
2024-01-08T16:47:48.726Z,2.90
2024-01-08T16:50:22.902Z,1.63
2024-01-08T16:52:51.447Z,3.25
2024-01-08T16:55:25.546Z,6.90
2024-01-08T16:58:15.516Z,8.15
2024-01-08T17:01:10.941Z,3.33
2024-01-08T17:03:45.794Z,2.13
2024-01-08T17:06:14.614Z,4.43
2024-01-08T17:08:57.166Z,1.98
2024-01-08T17:12:00.023Z,4.47
2024-01-08T17:14:38.938Z,4.13
2024-01-08T17:17:08.783Z,3.72
2024-01-08T17:19:56.651Z,2.28
2024-01-08T17:22:24.829Z,4.63
2024-01-08T17:24:53.093Z,6.65
2024-01-08T17:27:36.667Z,5.20
2024-01-08T17:30:22.542Z,4.82
2024-01-08T17:32:52.347Z,4.55
2024-01-08T17:35:21.026Z,6.97
2024-01-08T17:38:02.240Z,5.25
2024-01-08T17:40:31.175Z,5.20
2024-01-08T17:42:59.402Z,3.40
2024-01-08T17:45:27.597Z,2.55
2024-01-08T17:47:58.154Z,2.97
2024-01-08T17:50:32.808Z,4.55
2024-01-08T17:53:01.617Z,3.50
2024-01-08T17:55:30.467Z,7.63
2024-01-08T17:57:59.085Z,5.07
2024-01-08T18:00:27.869Z,8.93
2024-01-08T18:03:14.561Z,5.18
2024-01-08T18:06:14.807Z,4.93
2024-01-08T18:08:51.359Z,5.30
2024-01-08T18:14:16.449Z,5.50
2024-01-08T18:16:45.105Z,4.13
2024-01-08T18:19:48.230Z,11.82
2024-01-08T18:22:34.925Z,2.97
2024-01-08T18:25:19.372Z,5.72
2024-01-08T18:27:49.271Z,10.15
2024-01-08T18:30:38.269Z,6.82
2024-01-08T18:33:06.972Z,3.30
2024-01-08T18:35:40.888Z,4.18
2024-01-08T18:38:10.007Z,6.68
2024-01-08T18:40:38.171Z,6.38
2024-01-08T18:43:16.063Z,4.03
2024-01-08T18:46:01.432Z,4.40
2024-01-08T18:48:56.626Z,10.68
2024-01-08T18:51:26.227Z,4.80
2024-01-08T18:53:55.795Z,5.45
2024-01-08T18:56:24.281Z,5.47
2024-01-08T18:58:56.764Z,7.90
2024-01-08T19:01:31.153Z,3.60
2024-01-08T19:03:59.481Z,10.95
2024-01-08T19:06:30.758Z,7.45
2024-01-08T19:08:59.291Z,7.50
2024-01-08T19:11:33.925Z,4.75
2024-01-08T19:14:02.401Z,15.98
2024-01-08T19:16:30.571Z,11.02
2024-01-08T19:18:58.838Z,8.02
2024-01-08T19:21:28.416Z,9.95
2024-01-08T19:23:56.564Z,2.67
2024-01-08T19:26:24.742Z,7.28
2024-01-08T19:28:53.043Z,7.18
2024-01-08T19:31:21.264Z,6.80
2024-01-08T19:33:49.478Z,8.65
2024-01-08T19:36:19.107Z,6.30
2024-01-08T19:38:48.654Z,4.55
2024-01-08T19:41:18.894Z,6.65
2024-01-08T19:43:47.186Z,8.23
2024-01-08T19:46:16.817Z,7.45
2024-01-08T19:48:45.196Z,3.75
2024-01-08T19:51:13.979Z,9.68
2024-01-08T19:53:42.825Z,8.68
2024-01-08T19:56:13.494Z,7.43
2024-01-08T19:58:45.977Z,7.13
2024-01-08T20:01:14.382Z,4.30
2024-01-08T20:03:42.672Z,8.52
2024-01-08T20:06:11.079Z,8.27
2024-01-08T20:08:39.596Z,7.40
2024-01-08T20:11:09.548Z,8.32
2024-01-08T20:13:40.376Z,4.63
2024-01-08T20:16:09.827Z,5.00
2024-01-08T20:18:38.973Z,7.25
2024-01-08T20:21:07.870Z,2.20
2024-01-08T20:23:37.522Z,6.10
2024-01-08T20:26:10.154Z,8.85
2024-01-08T20:28:40.960Z,7.43
2024-01-08T20:31:09.165Z,10.55
2024-01-08T20:33:39.230Z,8.68
2024-01-08T20:36:08.915Z,6.05
2024-01-08T20:38:37.539Z,6.47
2024-01-08T20:41:06.270Z,12.07
2024-01-08T20:43:34.342Z,10.48
2024-01-08T20:46:03.816Z,8.27
2024-01-08T20:48:31.970Z,6.97
2024-01-08T20:51:00.147Z,7.40
2024-01-08T20:53:28.345Z,6.75
2024-01-08T20:55:56.601Z,12.20
2024-01-08T20:58:24.741Z,10.77
2024-01-08T21:00:52.923Z,7.63
2024-01-08T21:03:22.584Z,6.63
2024-01-08T21:05:51.192Z,9.32
2024-01-08T21:08:19.522Z,6.18
2024-01-08T21:10:48.847Z,9.70
2024-01-08T21:13:16.927Z,10.52
2024-01-08T21:15:45.252Z,6.50
2024-01-08T21:18:13.536Z,8.88
2024-01-08T21:20:43.309Z,7.47
2024-01-08T21:23:11.504Z,6.35
2024-01-08T21:25:40.297Z,6.90
2024-01-08T21:28:08.406Z,9.68
2024-01-08T21:30:36.563Z,6.53
2024-01-08T21:33:05.275Z,7.53
2024-01-08T21:35:33.601Z,7.60
2024-01-08T21:38:03.156Z,7.35
2024-01-08T21:40:31.333Z,10.07
2024-01-08T21:42:59.495Z,10.75
2024-01-08T21:45:27.896Z,6.18
2024-01-08T21:47:56.167Z,10.52
2024-01-08T21:50:24.565Z,9.90
2024-01-08T21:52:52.994Z,7.03
2024-01-08T21:55:22.697Z,10.18
2024-01-08T21:57:50.874Z,11.82
2024-01-08T22:00:22.010Z,9.02
2024-01-08T22:02:50.151Z,6.90
2024-01-08T22:05:18.729Z,14.85
2024-01-08T22:07:46.875Z,7.95
2024-01-08T22:10:15.242Z,5.50
2024-01-08T22:12:45.142Z,10.68
2024-01-08T22:15:13.878Z,7.65
2024-01-08T22:17:42.149Z,10.55
2024-01-08T22:20:11.815Z,7.88
2024-01-08T22:22:39.959Z,7.70
2024-01-08T22:25:08.788Z,9.88
2024-01-08T22:27:36.908Z,6.40
2024-01-08T22:30:09.524Z,9.38
2024-01-08T22:32:38.169Z,8.60
2024-01-08T22:35:07.387Z,8.23
2024-01-08T22:37:35.557Z,11.25
2024-01-08T22:40:05.450Z,11.13
2024-01-08T22:42:33.637Z,10.23
2024-01-08T22:45:01.878Z,6.38
2024-01-08T22:47:31.659Z,9.02
2024-01-08T22:49:59.895Z,11.95
2024-01-08T22:52:28.671Z,10.20
2024-01-08T22:54:56.874Z,9.57
2024-01-08T22:57:24.993Z,10.80
2024-01-08T22:59:53.235Z,6.97
2024-01-08T23:02:24.347Z,10.23
2024-01-08T23:04:53.927Z,9.77
2024-01-08T23:07:22.062Z,12.50
2024-01-08T23:09:50.143Z,11.63
2024-01-08T23:12:18.290Z,4.80
2024-01-08T23:14:46.394Z,7.72
2024-01-08T23:17:14.777Z,9.38
2024-01-08T23:19:43.229Z,12.48
2024-01-08T23:22:12.803Z,9.20
2024-01-08T23:24:42.839Z,7.25
2024-01-08T23:27:11.167Z,7.60
2024-01-08T23:29:39.467Z,7.10
2024-01-08T23:32:09.466Z,11.00
2024-01-08T23:34:37.772Z,6.95
2024-01-08T23:37:06.300Z,14.10
2024-01-08T23:39:37.923Z,9.63
2024-01-08T23:42:07.737Z,11.20
2024-01-08T23:44:36.010Z,8.85
2024-01-08T23:47:04.381Z,15.52
2024-01-08T23:49:32.757Z,8.52
2024-01-08T23:52:01.030Z,8.10
2024-01-08T23:54:29.313Z,5.88
2024-01-08T23:56:58.818Z,8.77
2024-01-08T23:59:27.060Z,6.35
